sensor_id;sensor_type;location;lat;lon;timestamp;P1;durP1;ratioP1;P2;durP2;ratioP2
3121;SDS011;1571;52.524;14.104;2023-05-14T00:02:18;9.90;;;9.10;;
3121;SDS011;1571;52.524;14.104;2023-05-14T00:04:47;9.07;;;8.20;;
3121;SDS011;1571;52.524;14.104;2023-05-14T00:07:16;9.67;;;8.77;;
3121;SDS011;1571;52.524;14.104;2023-05-14T00:09:44;9.80;;;8.40;;
3121;SDS011;1571;52.524;14.104;2023-05-14T00:12:13;9.10;;;8.37;;
3121;SDS011;1571;52.524;14.104;2023-05-14T00:14:41;9.20;;;8.43;;
3121;SDS011;1571;52.524;14.104;2023-05-14T00:17:09;8.97;;;8.27;;
3121;SDS011;1571;52.524;14.104;2023-05-14T00:19:37;8.43;;;7.63;;
3121;SDS011;1571;52.524;14.104;2023-05-14T00:22:07;9.80;;;9.00;;
3121;SDS011;1571;52.524;14.104;2023-05-14T00:24:37;9.93;;;8.93;;
3121;SDS011;1571;52.524;14.104;2023-05-14T00:27:05;10.47;;;9.37;;
3121;SDS011;1571;52.524;14.104;2023-05-14T00:29:33;9.13;;;8.33;;
3121;SDS011;1571;52.524;14.104;2023-05-14T00:32:01;10.60;;;9.70;;
3121;SDS011;1571;52.524;14.104;2023-05-14T00:34:30;9.60;;;8.60;;
3121;SDS011;1571;52.524;14.104;2023-05-14T00:36:59;9.47;;;8.57;;
3121;SDS011;1571;52.524;14.104;2023-05-14T00:39:27;10.97;;;9.47;;
3121;SDS011;1571;52.524;14.104;2023-05-14T00:41:56;9.73;;;8.93;;
3121;SDS011;1571;52.524;14.104;2023-05-14T00:44:25;10.70;;;9.70;;
3121;SDS011;1571;52.524;14.104;2023-05-14T00:46:53;10.60;;;9.57;;
3121;SDS011;1571;52.524;14.104;2023-05-14T00:49:21;10.30;;;9.30;;
3121;SDS011;1571;52.524;14.104;2023-05-14T00:51:50;13.00;;;9.70;;
3121;SDS011;1571;52.524;14.104;2023-05-14T00:54:19;12.83;;;9.43;;
3121;SDS011;1571;52.524;14.104;2023-05-14T00:56:48;10.03;;;9.03;;
3121;SDS011;1571;52.524;14.104;2023-05-14T00:59:17;10.13;;;9.33;;
3121;SDS011;1571;52.524;14.104;2023-05-14T01:01:45;9.87;;;9.10;;
3121;SDS011;1571;52.524;14.104;2023-05-14T01:04:14;10.60;;;9.13;;
3121;SDS011;1571;52.524;14.104;2023-05-14T01:06:44;10.07;;;9.27;;
3121;SDS011;1571;52.524;14.104;2023-05-14T01:09:21;11.00;;;10.00;;
3121;SDS011;1571;52.524;14.104;2023-05-14T01:11:54;11.40;;;9.90;;
3121;SDS011;1571;52.524;14.104;2023-05-14T01:14:31;11.80;;;10.80;;
3121;SDS011;1571;52.524;14.104;2023-05-14T01:17:03;12.30;;;11.10;;
3121;SDS011;1571;52.524;14.104;2023-05-14T01:19:35;10.87;;;9.93;;
3121;SDS011;1571;52.524;14.104;2023-05-14T01:22:08;10.70;;;9.70;;
3121;SDS011;1571;52.524;14.104;2023-05-14T01:24:36;11.90;;;10.87;;
3121;SDS011;1571;52.524;14.104;2023-05-14T01:27:05;10.60;;;9.70;;
3121;SDS011;1571;52.524;14.104;2023-05-14T01:29:37;12.27;;;11.07;;
3121;SDS011;1571;52.524;14.104;2023-05-14T01:32:10;11.50;;;10.60;;
3121;SDS011;1571;52.524;14.104;2023-05-14T01:34:40;11.80;;;10.80;;
3121;SDS011;1571;52.524;14.104;2023-05-14T01:37:11;11.50;;;10.50;;
3121;SDS011;1571;52.524;14.104;2023-05-14T01:39:40;11.70;;;10.50;;
3121;SDS011;1571;52.524;14.104;2023-05-14T01:42:09;12.43;;;11.00;;
3121;SDS011;1571;52.524;14.104;2023-05-14T01:44:37;12.77;;;11.67;;
3121;SDS011;1571;52.524;14.104;2023-05-14T01:47:06;12.30;;;11.20;;
3121;SDS011;1571;52.524;14.104;2023-05-14T01:49:34;10.43;;;9.70;;
3121;SDS011;1571;52.524;14.104;2023-05-14T01:52:03;11.83;;;10.70;;
3121;SDS011;1571;52.524;14.104;2023-05-14T01:54:33;13.43;;;11.07;;
3121;SDS011;1571;52.524;14.104;2023-05-14T01:57:02;12.67;;;10.73;;
3121;SDS011;1571;52.524;14.104;2023-05-14T01:59:30;11.20;;;10.20;;
3121;SDS011;1571;52.524;14.104;2023-05-14T02:01:58;12.00;;;10.87;;
3121;SDS011;1571;52.524;14.104;2023-05-14T02:04:26;11.50;;;9.93;;
3121;SDS011;1571;52.524;14.104;2023-05-14T02:06:55;13.37;;;12.07;;
3121;SDS011;1571;52.524;14.104;2023-05-14T02:09:23;13.13;;;11.93;;
3121;SDS011;1571;52.524;14.104;2023-05-14T02:11:53;11.50;;;10.40;;
3121;SDS011;1571;52.524;14.104;2023-05-14T02:14:21;10.80;;;9.67;;
3121;SDS011;1571;52.524;14.104;2023-05-14T02:16:50;10.90;;;9.83;;
3121;SDS011;1571;52.524;14.104;2023-05-14T02:19:18;11.03;;;10.03;;
3121;SDS011;1571;52.524;14.104;2023-05-14T02:21:47;11.40;;;10.40;;
3121;SDS011;1571;52.524;14.104;2023-05-14T02:24:16;11.07;;;10.23;;
3121;SDS011;1571;52.524;14.104;2023-05-14T02:26:44;11.67;;;10.67;;
3121;SDS011;1571;52.524;14.104;2023-05-14T02:29:13;11.00;;;10.03;;
3121;SDS011;1571;52.524;14.104;2023-05-14T02:31:42;11.37;;;10.27;;
3121;SDS011;1571;52.524;14.104;2023-05-14T02:34:10;9.67;;;8.67;;
3121;SDS011;1571;52.524;14.104;2023-05-14T02:36:38;10.63;;;9.70;;
3121;SDS011;1571;52.524;14.104;2023-05-14T02:39:06;10.87;;;9.90;;
3121;SDS011;1571;52.524;14.104;2023-05-14T02:41:35;12.10;;;10.90;;
3121;SDS011;1571;52.524;14.104;2023-05-14T02:44:03;11.40;;;10.43;;
3121;SDS011;1571;52.524;14.104;2023-05-14T02:46:33;13.53;;;11.03;;
3121;SDS011;1571;52.524;14.104;2023-05-14T02:49:02;11.13;;;10.23;;
3121;SDS011;1571;52.524;14.104;2023-05-14T02:51:30;11.30;;;9.93;;
3121;SDS011;1571;52.524;14.104;2023-05-14T02:53:58;11.80;;;10.70;;
3121;SDS011;1571;52.524;14.104;2023-05-14T02:56:26;12.73;;;10.57;;
3121;SDS011;1571;52.524;14.104;2023-05-14T02:58:54;11.60;;;10.50;;
3121;SDS011;1571;52.524;14.104;2023-05-14T03:01:23;10.70;;;9.80;;
3121;SDS011;1571;52.524;14.104;2023-05-14T03:03:53;10.63;;;9.73;;
3121;SDS011;1571;52.524;14.104;2023-05-14T03:06:21;11.53;;;10.40;;
3121;SDS011;1571;52.524;14.104;2023-05-14T03:08:49;13.23;;;12.03;;
3121;SDS011;1571;52.524;14.104;2023-05-14T03:11:18;11.20;;;10.30;;
3121;SDS011;1571;52.524;14.104;2023-05-14T03:13:46;11.37;;;10.27;;
3121;SDS011;1571;52.524;14.104;2023-05-14T03:16:14;14.10;;;10.73;;
3121;SDS011;1571;52.524;14.104;2023-05-14T03:18:42;12.33;;;11.07;;
3121;SDS011;1571;52.524;14.104;2023-05-14T03:21:13;10.47;;;9.63;;
3121;SDS011;1571;52.524;14.104;2023-05-14T03:23:42;10.27;;;9.23;;
3121;SDS011;1571;52.524;14.104;2023-05-14T03:26:10;11.30;;;10.20;;
3121;SDS011;1571;52.524;14.104;2023-05-14T03:28:38;15.50;;;9.70;;
3121;SDS011;1571;52.524;14.104;2023-05-14T03:31:06;10.07;;;9.17;;
3121;SDS011;1571;52.524;14.104;2023-05-14T03:33:36;12.37;;;10.87;;
3121;SDS011;1571;52.524;14.104;2023-05-14T03:36:04;11.43;;;10.33;;
3121;SDS011;1571;52.524;14.104;2023-05-14T03:38:34;10.03;;;9.23;;
3121;SDS011;1571;52.524;14.104;2023-05-14T03:41:02;11.70;;;10.80;;
3121;SDS011;1571;52.524;14.104;2023-05-14T03:43:30;12.37;;;11.13;;
3121;SDS011;1571;52.524;14.104;2023-05-14T03:45:59;12.33;;;10.93;;
3121;SDS011;1571;52.524;14.104;2023-05-14T03:48:27;10.93;;;10.03;;
3121;SDS011;1571;52.524;14.104;2023-05-14T03:50:55;13.30;;;10.10;;
3121;SDS011;1571;52.524;14.104;2023-05-14T03:53:23;10.43;;;9.73;;
3121;SDS011;1571;52.524;14.104;2023-05-14T03:55:53;12.40;;;11.10;;
3121;SDS011;1571;52.524;14.104;2023-05-14T03:58:21;11.33;;;10.17;;
3121;SDS011;1571;52.524;14.104;2023-05-14T04:00:49;11.00;;;10.03;;
3121;SDS011;1571;52.524;14.104;2023-05-14T04:03:18;9.50;;;8.80;;
3121;SDS011;1571;52.524;14.104;2023-05-14T04:05:47;11.30;;;10.23;;
3121;SDS011;1571;52.524;14.104;2023-05-14T04:08:15;10.73;;;9.77;;
3121;SDS011;1571;52.524;14.104;2023-05-14T04:10:43;15.33;;;10.43;;
3121;SDS011;1571;52.524;14.104;2023-05-14T04:13:13;11.00;;;10.00;;
3121;SDS011;1571;52.524;14.104;2023-05-14T04:15:42;10.07;;;9.07;;
3121;SDS011;1571;52.524;14.104;2023-05-14T04:18:10;11.73;;;10.53;;
3121;SDS011;1571;52.524;14.104;2023-05-14T04:20:38;12.10;;;10.90;;
3121;SDS011;1571;52.524;14.104;2023-05-14T04:23:07;9.70;;;8.93;;
3121;SDS011;1571;52.524;14.104;2023-05-14T04:25:35;12.70;;;10.57;;
3121;SDS011;1571;52.524;14.104;2023-05-14T04:28:04;10.90;;;9.80;;
3121;SDS011;1571;52.524;14.104;2023-05-14T04:30:33;10.77;;;9.50;;
3121;SDS011;1571;52.524;14.104;2023-05-14T04:33:02;9.33;;;8.43;;
3121;SDS011;1571;52.524;14.104;2023-05-14T04:35:30;11.40;;;9.73;;
3121;SDS011;1571;52.524;14.104;2023-05-14T04:37:58;10.77;;;9.77;;
3121;SDS011;1571;52.524;14.104;2023-05-14T04:40:27;11.33;;;10.33;;
3121;SDS011;1571;52.524;14.104;2023-05-14T04:42:56;12.00;;;10.90;;
3121;SDS011;1571;52.524;14.104;2023-05-14T04:45:25;11.00;;;9.93;;
3121;SDS011;1571;52.524;14.104;2023-05-14T04:47:54;11.40;;;10.40;;
3121;SDS011;1571;52.524;14.104;2023-05-14T04:50:22;11.80;;;9.50;;
3121;SDS011;1571;52.524;14.104;2023-05-14T04:52:51;10.80;;;9.20;;
3121;SDS011;1571;52.524;14.104;2023-05-14T04:55:21;10.70;;;9.63;;
3121;SDS011;1571;52.524;14.104;2023-05-14T04:57:50;10.87;;;9.77;;
3121;SDS011;1571;52.524;14.104;2023-05-14T05:00:18;9.27;;;8.57;;
3121;SDS011;1571;52.524;14.104;2023-05-14T05:02:48;11.40;;;9.60;;
3121;SDS011;1571;52.524;14.104;2023-05-14T05:05:17;11.13;;;10.13;;
3121;SDS011;1571;52.524;14.104;2023-05-14T05:07:46;10.73;;;9.73;;
3121;SDS011;1571;52.524;14.104;2023-05-14T05:10:14;13.17;;;11.97;;
3121;SDS011;1571;52.524;14.104;2023-05-14T05:12:42;10.83;;;9.33;;
3121;SDS011;1571;52.524;14.104;2023-05-14T05:15:11;10.63;;;9.67;;
3121;SDS011;1571;52.524;14.104;2023-05-14T05:17:39;10.27;;;9.00;;
3121;SDS011;1571;52.524;14.104;2023-05-14T05:20:08;10.03;;;9.10;;
3121;SDS011;1571;52.524;14.104;2023-05-14T05:22:38;11.57;;;10.37;;
3121;SDS011;1571;52.524;14.104;2023-05-14T05:25:06;10.30;;;9.40;;
3121;SDS011;1571;52.524;14.104;2023-05-14T05:27:35;10.13;;;9.20;;
3121;SDS011;1571;52.524;14.104;2023-05-14T05:30:03;16.03;;;10.40;;
3121;SDS011;1571;52.524;14.104;2023-05-14T05:32:33;11.73;;;9.80;;
3121;SDS011;1571;52.524;14.104;2023-05-14T05:35:02;10.50;;;9.40;;
3121;SDS011;1571;52.524;14.104;2023-05-14T05:37:30;11.83;;;10.13;;
3121;SDS011;1571;52.524;14.104;2023-05-14T05:40:00;10.40;;;9.50;;
3121;SDS011;1571;52.524;14.104;2023-05-14T05:42:28;12.10;;;9.67;;
3121;SDS011;1571;52.524;14.104;2023-05-14T05:44:56;11.87;;;9.87;;
3121;SDS011;1571;52.524;14.104;2023-05-14T05:47:24;11.00;;;9.97;;
3121;SDS011;1571;52.524;14.104;2023-05-14T05:49:53;10.70;;;9.77;;
3121;SDS011;1571;52.524;14.104;2023-05-14T05:52:21;9.80;;;8.80;;
3121;SDS011;1571;52.524;14.104;2023-05-14T05:54:49;11.13;;;10.03;;
3121;SDS011;1571;52.524;14.104;2023-05-14T05:57:19;11.13;;;10.03;;
3121;SDS011;1571;52.524;14.104;2023-05-14T05:59:52;11.03;;;9.90;;
3121;SDS011;1571;52.524;14.104;2023-05-14T06:02:20;13.50;;;9.33;;
3121;SDS011;1571;52.524;14.104;2023-05-14T06:04:48;10.70;;;9.70;;
3121;SDS011;1571;52.524;14.104;2023-05-14T06:07:17;9.87;;;9.07;;
3121;SDS011;1571;52.524;14.104;2023-05-14T06:09:45;13.23;;;9.17;;
3121;SDS011;1571;52.524;14.104;2023-05-14T06:12:13;12.33;;;9.97;;
3121;SDS011;1571;52.524;14.104;2023-05-14T06:14:43;10.30;;;9.50;;
3121;SDS011;1571;52.524;14.104;2023-05-14T06:17:11;10.03;;;9.20;;
3121;SDS011;1571;52.524;14.104;2023-05-14T06:19:39;9.53;;;8.73;;
3121;SDS011;1571;52.524;14.104;2023-05-14T06:22:07;9.97;;;9.07;;
3121;SDS011;1571;52.524;14.104;2023-05-14T06:24:36;17.03;;;9.63;;
3121;SDS011;1571;52.524;14.104;2023-05-14T06:27:04;13.40;;;10.00;;
3121;SDS011;1571;52.524;14.104;2023-05-14T06:29:32;12.30;;;10.03;;
3121;SDS011;1571;52.524;14.104;2023-05-14T06:32:02;14.50;;;10.27;;
3121;SDS011;1571;52.524;14.104;2023-05-14T06:34:31;9.73;;;8.83;;
3121;SDS011;1571;52.524;14.104;2023-05-14T06:37:00;10.20;;;9.40;;
3121;SDS011;1571;52.524;14.104;2023-05-14T06:39:30;9.30;;;8.43;;
3121;SDS011;1571;52.524;14.104;2023-05-14T06:41:58;10.00;;;9.20;;
3121;SDS011;1571;52.524;14.104;2023-05-14T06:44:26;10.13;;;8.73;;
3121;SDS011;1571;52.524;14.104;2023-05-14T06:46:54;9.30;;;8.53;;
3121;SDS011;1571;52.524;14.104;2023-05-14T06:49:24;14.03;;;10.23;;
3121;SDS011;1571;52.524;14.104;2023-05-14T06:51:52;9.47;;;8.53;;
3121;SDS011;1571;52.524;14.104;2023-05-14T06:54:20;8.70;;;7.80;;
3121;SDS011;1571;52.524;14.104;2023-05-14T06:56:48;10.00;;;9.03;;
3121;SDS011;1571;52.524;14.104;2023-05-14T06:59:17;9.20;;;8.30;;
3121;SDS011;1571;52.524;14.104;2023-05-14T07:01:45;11.00;;;8.27;;
3121;SDS011;1571;52.524;14.104;2023-05-14T07:04:13;9.23;;;8.43;;
3121;SDS011;1571;52.524;14.104;2023-05-14T07:06:43;14.50;;;8.80;;
3121;SDS011;1571;52.524;14.104;2023-05-14T07:09:11;9.13;;;8.23;;
3121;SDS011;1571;52.524;14.104;2023-05-14T07:11:40;8.77;;;8.07;;
3121;SDS011;1571;52.524;14.104;2023-05-14T07:14:08;14.43;;;9.10;;
3121;SDS011;1571;52.524;14.104;2023-05-14T07:16:36;9.87;;;8.97;;
3121;SDS011;1571;52.524;14.104;2023-05-14T07:19:04;10.27;;;8.37;;
3121;SDS011;1571;52.524;14.104;2023-05-14T07:21:33;9.67;;;8.73;;
3121;SDS011;1571;52.524;14.104;2023-05-14T07:24:03;11.83;;;8.83;;
3121;SDS011;1571;52.524;14.104;2023-05-14T07:26:32;8.60;;;7.80;;
3121;SDS011;1571;52.524;14.104;2023-05-14T07:29:01;8.10;;;7.37;;
3121;SDS011;1571;52.524;14.104;2023-05-14T07:31:29;9.37;;;8.50;;
3121;SDS011;1571;52.524;14.104;2023-05-14T07:33:57;8.73;;;7.80;;
3121;SDS011;1571;52.524;14.104;2023-05-14T07:36:25;9.20;;;8.43;;
3121;SDS011;1571;52.524;14.104;2023-05-14T07:38:54;8.80;;;8.10;;
3121;SDS011;1571;52.524;14.104;2023-05-14T07:41:23;8.80;;;8.10;;
3121;SDS011;1571;52.524;14.104;2023-05-14T07:43:51;9.03;;;8.13;;
3121;SDS011;1571;52.524;14.104;2023-05-14T07:46:20;8.70;;;8.00;;
3121;SDS011;1571;52.524;14.104;2023-05-14T07:48:49;8.80;;;8.07;;
3121;SDS011;1571;52.524;14.104;2023-05-14T07:51:17;10.73;;;8.33;;
3121;SDS011;1571;52.524;14.104;2023-05-14T07:53:45;9.53;;;8.20;;
3121;SDS011;1571;52.524;14.104;2023-05-14T07:56:14;10.73;;;8.00;;
3121;SDS011;1571;52.524;14.104;2023-05-14T07:58:44;8.80;;;8.10;;
3121;SDS011;1571;52.524;14.104;2023-05-14T08:01:12;9.30;;;8.27;;
3121;SDS011;1571;52.524;14.104;2023-05-14T08:03:40;9.20;;;8.30;;
3121;SDS011;1571;52.524;14.104;2023-05-14T08:06:08;9.60;;;8.67;;
3121;SDS011;1571;52.524;14.104;2023-05-14T08:08:37;8.10;;;7.40;;
3121;SDS011;1571;52.524;14.104;2023-05-14T08:11:05;8.13;;;7.33;;
3121;SDS011;1571;52.524;14.104;2023-05-14T08:13:33;7.80;;;7.20;;
3121;SDS011;1571;52.524;14.104;2023-05-14T08:16:03;8.53;;;7.77;;
3121;SDS011;1571;52.524;14.104;2023-05-14T08:18:32;6.80;;;6.30;;
3121;SDS011;1571;52.524;14.104;2023-05-14T08:21:00;10.33;;;6.93;;
3121;SDS011;1571;52.524;14.104;2023-05-14T08:23:29;8.00;;;7.20;;
3121;SDS011;1571;52.524;14.104;2023-05-14T08:25:57;7.90;;;5.80;;
3121;SDS011;1571;52.524;14.104;2023-05-14T08:28:26;7.43;;;6.67;;
3121;SDS011;1571;52.524;14.104;2023-05-14T08:30:54;6.37;;;5.87;;
3121;SDS011;1571;52.524;14.104;2023-05-14T08:33:24;7.33;;;5.83;;
3121;SDS011;1571;52.524;14.104;2023-05-14T08:35:52;11.33;;;6.17;;
3121;SDS011;1571;52.524;14.104;2023-05-14T08:38:20;8.23;;;5.90;;
3121;SDS011;1571;52.524;14.104;2023-05-14T08:40:50;5.93;;;5.40;;
3121;SDS011;1571;52.524;14.104;2023-05-14T08:43:24;6.10;;;4.53;;
3121;SDS011;1571;52.524;14.104;2023-05-14T08:45:57;5.37;;;4.87;;
3121;SDS011;1571;52.524;14.104;2023-05-14T08:48:31;4.93;;;4.50;;
3121;SDS011;1571;52.524;14.104;2023-05-14T08:51:00;4.30;;;4.00;;
3121;SDS011;1571;52.524;14.104;2023-05-14T08:53:29;3.60;;;3.37;;
3121;SDS011;1571;52.524;14.104;2023-05-14T08:55:57;4.03;;;3.73;;
3121;SDS011;1571;52.524;14.104;2023-05-14T08:58:28;3.83;;;3.37;;
3121;SDS011;1571;52.524;14.104;2023-05-14T09:00:56;3.53;;;2.40;;
3121;SDS011;1571;52.524;14.104;2023-05-14T09:03:25;4.30;;;3.20;;
3121;SDS011;1571;52.524;14.104;2023-05-14T09:05:55;4.80;;;2.97;;
3121;SDS011;1571;52.524;14.104;2023-05-14T09:08:26;3.87;;;3.40;;
3121;SDS011;1571;52.524;14.104;2023-05-14T09:10:54;3.60;;;3.40;;
3121;SDS011;1571;52.524;14.104;2023-05-14T09:13:22;5.60;;;4.30;;
3121;SDS011;1571;52.524;14.104;2023-05-14T09:15:53;3.60;;;3.20;;
3121;SDS011;1571;52.524;14.104;2023-05-14T09:18:22;3.87;;;3.67;;
3121;SDS011;1571;52.524;14.104;2023-05-14T09:20:52;3.97;;;3.57;;
3121;SDS011;1571;52.524;14.104;2023-05-14T09:23:21;10.73;;;5.03;;
3121;SDS011;1571;52.524;14.104;2023-05-14T09:25:52;3.40;;;3.10;;
3121;SDS011;1571;52.524;14.104;2023-05-14T09:28:20;5.10;;;4.00;;
3121;SDS011;1571;52.524;14.104;2023-05-14T09:30:50;5.83;;;4.10;;
3121;SDS011;1571;52.524;14.104;2023-05-14T09:33:24;7.30;;;2.87;;
3121;SDS011;1571;52.524;14.104;2023-05-14T09:35:54;3.60;;;3.10;;
3121;SDS011;1571;52.524;14.104;2023-05-14T09:38:29;2.37;;;2.27;;
3121;SDS011;1571;52.524;14.104;2023-05-14T09:40:59;3.83;;;2.80;;
3121;SDS011;1571;52.524;14.104;2023-05-14T09:43:27;3.27;;;2.50;;
3121;SDS011;1571;52.524;14.104;2023-05-14T09:45:55;3.87;;;3.47;;
3121;SDS011;1571;52.524;14.104;2023-05-14T09:48:24;4.73;;;3.00;;
3121;SDS011;1571;52.524;14.104;2023-05-14T09:50:52;3.63;;;2.70;;
3121;SDS011;1571;52.524;14.104;2023-05-14T09:53:20;5.47;;;2.80;;
3121;SDS011;1571;52.524;14.104;2023-05-14T09:55:50;4.87;;;2.90;;
3121;SDS011;1571;52.524;14.104;2023-05-14T09:58:18;3.80;;;3.30;;
3121;SDS011;1571;52.524;14.104;2023-05-14T10:00:46;9.57;;;3.17;;
3121;SDS011;1571;52.524;14.104;2023-05-14T10:03:15;3.60;;;3.30;;
3121;SDS011;1571;52.524;14.104;2023-05-14T10:05:47;6.87;;;6.27;;
3121;SDS011;1571;52.524;14.104;2023-05-14T10:08:18;6.00;;;5.50;;
3121;SDS011;1571;52.524;14.104;2023-05-14T10:10:52;6.07;;;2.57;;
3121;SDS011;1571;52.524;14.104;2023-05-14T10:13:23;14.00;;;12.60;;
3121;SDS011;1571;52.524;14.104;2023-05-14T10:16:00;3.50;;;3.03;;
3121;SDS011;1571;52.524;14.104;2023-05-14T10:18:41;4.40;;;2.80;;
3121;SDS011;1571;52.524;14.104;2023-05-14T10:21:14;3.20;;;2.30;;
3121;SDS011;1571;52.524;14.104;2023-05-14T10:23:46;3.57;;;3.23;;
3121;SDS011;1571;52.524;14.104;2023-05-14T10:26:17;4.10;;;3.80;;
3121;SDS011;1571;52.524;14.104;2023-05-14T10:28:48;7.23;;;6.53;;
3121;SDS011;1571;52.524;14.104;2023-05-14T10:31:17;6.33;;;5.73;;
3121;SDS011;1571;52.524;14.104;2023-05-14T10:33:45;5.73;;;5.20;;
3121;SDS011;1571;52.524;14.104;2023-05-14T10:36:16;5.80;;;5.23;;
3121;SDS011;1571;52.524;14.104;2023-05-14T10:38:45;10.87;;;5.67;;
3121;SDS011;1571;52.524;14.104;2023-05-14T10:41:13;5.70;;;3.00;;
3121;SDS011;1571;52.524;14.104;2023-05-14T10:43:45;3.70;;;3.43;;
3121;SDS011;1571;52.524;14.104;2023-05-14T10:46:14;3.57;;;3.27;;
3121;SDS011;1571;52.524;14.104;2023-05-14T10:48:42;3.17;;;2.70;;
3121;SDS011;1571;52.524;14.104;2023-05-14T10:51:11;3.00;;;2.33;;
3121;SDS011;1571;52.524;14.104;2023-05-14T10:53:40;4.77;;;4.20;;
3121;SDS011;1571;52.524;14.104;2023-05-14T10:56:10;2.77;;;2.57;;
3121;SDS011;1571;52.524;14.104;2023-05-14T10:58:40;2.93;;;2.63;;
3121;SDS011;1571;52.524;14.104;2023-05-14T11:01:11;7.23;;;2.80;;
3121;SDS011;1571;52.524;14.104;2023-05-14T11:03:42;4.73;;;2.90;;
3121;SDS011;1571;52.524;14.104;2023-05-14T11:06:12;7.03;;;3.03;;
3121;SDS011;1571;52.524;14.104;2023-05-14T11:08:42;2.60;;;2.40;;
3121;SDS011;1571;52.524;14.104;2023-05-14T11:11:12;4.10;;;3.00;;
3121;SDS011;1571;52.524;14.104;2023-05-14T11:13:41;3.57;;;3.27;;
3121;SDS011;1571;52.524;14.104;2023-05-14T11:16:11;3.97;;;3.20;;
3121;SDS011;1571;52.524;14.104;2023-05-14T11:18:47;4.40;;;3.07;;
3121;SDS011;1571;52.524;14.104;2023-05-14T11:21:20;3.30;;;3.00;;
3121;SDS011;1571;52.524;14.104;2023-05-14T11:23:48;2.80;;;2.60;;
3121;SDS011;1571;52.524;14.104;2023-05-14T11:26:17;4.53;;;3.40;;
3121;SDS011;1571;52.524;14.104;2023-05-14T11:28:47;3.33;;;3.03;;
3121;SDS011;1571;52.524;14.104;2023-05-14T11:31:17;6.53;;;2.97;;
3121;SDS011;1571;52.524;14.104;2023-05-14T11:33:46;3.13;;;2.83;;
3121;SDS011;1571;52.524;14.104;2023-05-14T11:36:14;5.53;;;5.00;;
3121;SDS011;1571;52.524;14.104;2023-05-14T11:38:45;2.67;;;2.47;;
3121;SDS011;1571;52.524;14.104;2023-05-14T11:41:16;2.40;;;2.03;;
3121;SDS011;1571;52.524;14.104;2023-05-14T11:43:46;3.87;;;1.93;;
3121;SDS011;1571;52.524;14.104;2023-05-14T11:46:15;6.53;;;2.63;;
3121;SDS011;1571;52.524;14.104;2023-05-14T11:48:46;4.13;;;2.70;;
3121;SDS011;1571;52.524;14.104;2023-05-14T11:51:14;2.57;;;2.30;;
3121;SDS011;1571;52.524;14.104;2023-05-14T11:53:43;3.97;;;3.20;;
3121;SDS011;1571;52.524;14.104;2023-05-14T11:56:12;2.83;;;2.43;;
3121;SDS011;1571;52.524;14.104;2023-05-14T11:58:40;2.77;;;2.57;;
3121;SDS011;1571;52.524;14.104;2023-05-14T12:01:14;5.77;;;3.03;;
3121;SDS011;1571;52.524;14.104;2023-05-14T12:03:43;2.00;;;1.90;;
3121;SDS011;1571;52.524;14.104;2023-05-14T12:06:13;3.87;;;2.33;;
3121;SDS011;1571;52.524;14.104;2023-05-14T12:08:41;5.73;;;2.37;;
3121;SDS011;1571;52.524;14.104;2023-05-14T12:11:09;5.60;;;3.33;;
3121;SDS011;1571;52.524;14.104;2023-05-14T12:13:37;4.57;;;3.00;;
3121;SDS011;1571;52.524;14.104;2023-05-14T12:16:06;6.97;;;2.80;;
3121;SDS011;1571;52.524;14.104;2023-05-14T12:18:34;2.53;;;2.37;;
3121;SDS011;1571;52.524;14.104;2023-05-14T12:21:04;2.60;;;2.50;;
3121;SDS011;1571;52.524;14.104;2023-05-14T12:23:35;3.00;;;2.70;;
3121;SDS011;1571;52.524;14.104;2023-05-14T12:26:05;2.90;;;2.37;;
3121;SDS011;1571;52.524;14.104;2023-05-14T12:28:37;3.33;;;2.87;;
3121;SDS011;1571;52.524;14.104;2023-05-14T12:31:09;3.73;;;3.07;;
3121;SDS011;1571;52.524;14.104;2023-05-14T12:33:37;4.63;;;2.97;;
3121;SDS011;1571;52.524;14.104;2023-05-14T12:36:05;2.93;;;2.50;;
3121;SDS011;1571;52.524;14.104;2023-05-14T12:38:38;5.47;;;3.23;;
3121;SDS011;1571;52.524;14.104;2023-05-14T12:41:07;5.33;;;3.00;;
3121;SDS011;1571;52.524;14.104;2023-05-14T12:43:35;4.73;;;2.43;;
3121;SDS011;1571;52.524;14.104;2023-05-14T12:46:03;4.43;;;3.10;;
3121;SDS011;1571;52.524;14.104;2023-05-14T12:48:32;3.37;;;2.57;;
3121;SDS011;1571;52.524;14.104;2023-05-14T12:51:00;2.33;;;2.17;;
3121;SDS011;1571;52.524;14.104;2023-05-14T12:53:28;2.80;;;2.60;;
3121;SDS011;1571;52.524;14.104;2023-05-14T12:55:58;5.30;;;2.80;;
3121;SDS011;1571;52.524;14.104;2023-05-14T12:58:26;2.90;;;2.70;;
3121;SDS011;1571;52.524;14.104;2023-05-14T13:00:54;3.70;;;2.73;;
3121;SDS011;1571;52.524;14.104;2023-05-14T13:03:22;3.80;;;3.53;;
3121;SDS011;1571;52.524;14.104;2023-05-14T13:05:52;4.80;;;2.27;;
3121;SDS011;1571;52.524;14.104;2023-05-14T13:08:21;2.67;;;2.30;;
3121;SDS011;1571;52.524;14.104;2023-05-14T13:10:51;3.27;;;2.40;;
3121;SDS011;1571;52.524;14.104;2023-05-14T13:13:21;3.13;;;2.93;;
3121;SDS011;1571;52.524;14.104;2023-05-14T13:15:49;3.77;;;2.30;;
3121;SDS011;1571;52.524;14.104;2023-05-14T13:18:17;6.50;;;2.40;;
3121;SDS011;1571;52.524;14.104;2023-05-14T13:20:46;3.63;;;2.50;;
3121;SDS011;1571;52.524;14.104;2023-05-14T13:23:14;3.97;;;2.77;;
3121;SDS011;1571;52.524;14.104;2023-05-14T13:25:42;3.10;;;2.80;;
3121;SDS011;1571;52.524;14.104;2023-05-14T13:28:12;2.60;;;2.40;;
3121;SDS011;1571;52.524;14.104;2023-05-14T13:30:42;3.43;;;2.70;;
3121;SDS011;1571;52.524;14.104;2023-05-14T13:33:31;4.83;;;2.87;;
3121;SDS011;1571;52.524;14.104;2023-05-14T13:36:00;2.83;;;2.50;;
3121;SDS011;1571;52.524;14.104;2023-05-14T13:38:28;2.53;;;2.40;;
3121;SDS011;1571;52.524;14.104;2023-05-14T13:40:56;8.13;;;2.40;;
3121;SDS011;1571;52.524;14.104;2023-05-14T13:43:28;5.50;;;2.67;;
3121;SDS011;1571;52.524;14.104;2023-05-14T13:45:58;7.53;;;2.30;;
3121;SDS011;1571;52.524;14.104;2023-05-14T13:48:27;3.30;;;2.97;;
3121;SDS011;1571;52.524;14.104;2023-05-14T13:50:56;3.67;;;2.57;;
3121;SDS011;1571;52.524;14.104;2023-05-14T13:53:25;5.17;;;2.57;;
3121;SDS011;1571;52.524;14.104;2023-05-14T13:55:53;2.57;;;2.37;;
3121;SDS011;1571;52.524;14.104;2023-05-14T13:58:24;3.93;;;2.70;;
3121;SDS011;1571;52.524;14.104;2023-05-14T14:00:53;3.23;;;2.37;;
3121;SDS011;1571;52.524;14.104;2023-05-14T14:03:23;5.23;;;2.77;;
3121;SDS011;1571;52.524;14.104;2023-05-14T14:05:51;2.50;;;2.03;;
3121;SDS011;1571;52.524;14.104;2023-05-14T14:08:19;2.77;;;2.57;;
3121;SDS011;1571;52.524;14.104;2023-05-14T14:10:50;4.77;;;2.57;;
3121;SDS011;1571;52.524;14.104;2023-05-14T14:13:21;3.20;;;3.00;;
3121;SDS011;1571;52.524;14.104;2023-05-14T14:15:50;4.90;;;2.80;;
3121;SDS011;1571;52.524;14.104;2023-05-14T14:18:18;3.40;;;2.60;;
3121;SDS011;1571;52.524;14.104;2023-05-14T14:20:48;3.57;;;2.70;;
3121;SDS011;1571;52.524;14.104;2023-05-14T14:23:16;4.43;;;3.10;;
3121;SDS011;1571;52.524;14.104;2023-05-14T14:25:45;4.50;;;3.10;;
3121;SDS011;1571;52.524;14.104;2023-05-14T14:28:13;4.97;;;2.87;;
3121;SDS011;1571;52.524;14.104;2023-05-14T14:30:41;6.83;;;3.50;;
3121;SDS011;1571;52.524;14.104;2023-05-14T14:33:10;6.00;;;2.63;;
3121;SDS011;1571;52.524;14.104;2023-05-14T14:35:38;2.93;;;2.70;;
3121;SDS011;1571;52.524;14.104;2023-05-14T14:38:08;3.07;;;2.87;;
3121;SDS011;1571;52.524;14.104;2023-05-14T14:40:36;4.00;;;3.03;;
3121;SDS011;1571;52.524;14.104;2023-05-14T14:43:04;8.83;;;3.20;;
3121;SDS011;1571;52.524;14.104;2023-05-14T14:45:33;2.80;;;2.60;;
3121;SDS011;1571;52.524;14.104;2023-05-14T14:50:53;2.70;;;2.50;;
3121;SDS011;1571;52.524;14.104;2023-05-14T14:53:23;3.60;;;3.30;;
3121;SDS011;1571;52.524;14.104;2023-05-14T14:55:51;7.53;;;3.17;;
3121;SDS011;1571;52.524;14.104;2023-05-14T14:58:20;7.20;;;2.90;;
3121;SDS011;1571;52.524;14.104;2023-05-14T15:00:50;3.53;;;3.17;;
3121;SDS011;1571;52.524;14.104;2023-05-14T15:03:19;3.20;;;2.90;;
3121;SDS011;1571;52.524;14.104;2023-05-14T15:05:48;4.03;;;3.10;;
3121;SDS011;1571;52.524;14.104;2023-05-14T15:08:16;4.03;;;3.40;;